DLH402 EDDF-KEWR
Flight info
| Callsign | DLH402 |
|---|---|
| Flight time | N/A |
| Altitude | 36000 |
| Route | OBOKA3W/25C OBOKA Z29 TORNU DCT BREDA DCT GALSO Q63 ERING L179 UGBET Q60 OKSAW DCT BIBPE DCT FELCA DCT FADZU DCT OFSOX DCT SLANY DCT LUNIG DCT LUPOR DCT TOBOR/M083F370 NATC ELSIR/N0467F380 N406A TOPPS DCT KJOHN DCT HANAA FLOSI4 |
| Aircraft | A346/H-SDE2E3FGHIJ3J4J5M1RWXY/LB1D1 |
Departure
| Time | 2026-05-06 15:28 |
|---|---|
| Airport | Frankfurt Main Airport (EDDF) |
Arrival
| Time | N/A |
|---|---|
| Airport | Newark Liberty International Airport (KEWR) |
| Time | Latitude | Longitude | Altitude | Speed | Heading |
|---|---|---|---|---|---|
| 2026-05-06 14:44 | 50.04666 | 8.56049 | 364 ft | 0 kts | 340° |
| 2026-05-06 14:45 | 50.04721 | 8.56278 | 367 ft | 0 kts | 340° |
| 2026-05-06 15:15 | 50.04717 | 8.56280 | 364 ft | 3 kts | 340° |
| 2026-05-06 15:15 | 50.04692 | 8.56295 | 370 ft | 4 kts | 340° |
| 2026-05-06 15:15 | 50.04672 | 8.56307 | 369 ft | 4 kts | 330° |
| 2026-05-06 15:16 | 50.04656 | 8.56329 | 371 ft | 4 kts | 300° |
| 2026-05-06 15:16 | 50.04651 | 8.56358 | 372 ft | 4 kts | 266° |
| 2026-05-06 15:16 | 50.04656 | 8.56393 | 369 ft | 4 kts | 250° |
| 2026-05-06 15:16 | 50.04664 | 8.56426 | 370 ft | 1 kts | 250° |
| 2026-05-06 15:20 | 50.04663 | 8.56421 | 371 ft | 2 kts | 250° |
| 2026-05-06 15:20 | 50.04651 | 8.56371 | 368 ft | 9 kts | 249° |
| 2026-05-06 15:20 | 50.04621 | 8.56244 | 366 ft | 14 kts | 250° |
| 2026-05-06 15:20 | 50.04585 | 8.56095 | 370 ft | 15 kts | 250° |
| 2026-05-06 15:21 | 50.04539 | 8.55973 | 370 ft | 13 kts | 212° |
| 2026-05-06 15:21 | 50.04453 | 8.55923 | 369 ft | 14 kts | 195° |
| 2026-05-06 15:21 | 50.04363 | 8.55922 | 370 ft | 10 kts | 164° |
| 2026-05-06 15:21 | 50.04305 | 8.55951 | 367 ft | 9 kts | 163° |
| 2026-05-06 15:22 | 50.04234 | 8.55932 | 366 ft | 12 kts | 202° |
| 2026-05-06 15:22 | 50.04144 | 8.55942 | 365 ft | 14 kts | 161° |
| 2026-05-06 15:22 | 50.04076 | 8.56039 | 366 ft | 15 kts | 89° |
| 2026-05-06 15:22 | 50.04108 | 8.56200 | 367 ft | 16 kts | 69° |
| 2026-05-06 15:23 | 50.04148 | 8.56363 | 365 ft | 16 kts | 69° |
| 2026-05-06 15:23 | 50.04187 | 8.56526 | 366 ft | 16 kts | 70° |
| 2026-05-06 15:23 | 50.04225 | 8.56690 | 371 ft | 16 kts | 69° |
| 2026-05-06 15:23 | 50.04264 | 8.56851 | 372 ft | 16 kts | 69° |
| 2026-05-06 15:24 | 50.04304 | 8.57017 | 372 ft | 17 kts | 69° |
| 2026-05-06 15:24 | 50.04343 | 8.57184 | 372 ft | 17 kts | 70° |
| 2026-05-06 15:24 | 50.04386 | 8.57362 | 373 ft | 18 kts | 69° |
| 2026-05-06 15:24 | 50.04433 | 8.57558 | 372 ft | 20 kts | 69° |
| 2026-05-06 15:25 | 50.04481 | 8.57762 | 375 ft | 21 kts | 69° |
| 2026-05-06 15:25 | 50.04535 | 8.57986 | 375 ft | 22 kts | 69° |
| 2026-05-06 15:25 | 50.04587 | 8.58202 | 377 ft | 19 kts | 70° |
| 2026-05-06 15:25 | 50.04622 | 8.58348 | 378 ft | 14 kts | 70° |
| 2026-05-06 15:26 | 50.04652 | 8.58478 | 380 ft | 10 kts | 71° |
| 2026-05-06 15:26 | 50.04629 | 8.58564 | 382 ft | 10 kts | 148° |
| 2026-05-06 15:26 | 50.04561 | 8.58607 | 381 ft | 11 kts | 161° |
| 2026-05-06 15:26 | 50.04496 | 8.58594 | 382 ft | 11 kts | 225° |
| 2026-05-06 15:27 | 50.04470 | 8.58514 | 383 ft | 0 kts | 248° |
| 2026-05-06 15:27 | 50.04454 | 8.58452 | 381 ft | 24 kts | 249° |
| 2026-05-06 15:27 | 50.04324 | 8.57908 | 377 ft | 81 kts | 250° |
| 2026-05-06 15:27 | 50.04064 | 8.56820 | 370 ft | 130 kts | 249° |
| 2026-05-06 15:28 | 50.03697 | 8.55288 | 360 ft | 170 kts | 250° |
| 2026-05-06 15:28 | 50.03251 | 8.53461 | 626 ft | 183 kts | 250° |
| 2026-05-06 15:28 | 50.02801 | 8.51605 | 1116 ft | 185 kts | 250° |
| 2026-05-06 15:28 | 50.02246 | 8.49784 | 1699 ft | 189 kts | 234° |
| 2026-05-06 15:29 | 50.01219 | 8.48461 | 2251 ft | 196 kts | 209° |
| 2026-05-06 15:29 | 49.99893 | 8.47845 | 2632 ft | 204 kts | 194° |
| 2026-05-06 15:29 | 49.98470 | 8.47537 | 3058 ft | 206 kts | 190° |
| 2026-05-06 15:29 | 49.97057 | 8.47265 | 3639 ft | 204 kts | 191° |
| 2026-05-06 15:30 | 49.95677 | 8.46851 | 4240 ft | 202 kts | 197° |
| 2026-05-06 15:30 | 49.94285 | 8.46237 | 4588 ft | 215 kts | 198° |
| 2026-05-06 15:30 | 49.92794 | 8.45555 | 4851 ft | 231 kts | 200° |
| 2026-05-06 15:30 | 49.91374 | 8.44312 | 5182 ft | 240 kts | 225° |
| 2026-05-06 15:31 | 49.90362 | 8.42204 | 5770 ft | 246 kts | 239° |
| 2026-05-06 15:31 | 49.89477 | 8.39895 | 6410 ft | 250 kts | 239° |
| 2026-05-06 15:31 | 49.88743 | 8.37447 | 7023 ft | 253 kts | 255° |
| 2026-05-06 15:32 | 49.88734 | 8.31821 | 8070 ft | 270 kts | 273° |
| 2026-05-06 15:32 | 49.88918 | 8.28934 | 8619 ft | 274 kts | 277° |
| 2026-05-06 15:32 | 49.89453 | 8.26079 | 9250 ft | 278 kts | 292° |
| 2026-05-06 15:32 | 49.90456 | 8.23477 | 9833 ft | 284 kts | 303° |
| 2026-05-06 15:33 | 49.91665 | 8.20960 | 10263 ft | 293 kts | 304° |
| 2026-05-06 15:33 | 49.92936 | 8.18380 | 10611 ft | 309 kts | 306° |
| 2026-05-06 15:33 | 49.94404 | 8.15766 | 10912 ft | 327 kts | 311° |
| 2026-05-06 15:33 | 49.96099 | 8.13262 | 11217 ft | 345 kts | 316° |
| 2026-05-06 15:34 | 49.97958 | 8.10768 | 11506 ft | 361 kts | 317° |
| 2026-05-06 15:34 | 49.99917 | 8.08164 | 11834 ft | 375 kts | 317° |
| 2026-05-06 15:34 | 50.01928 | 8.05497 | 12446 ft | 381 kts | 317° |
| 2026-05-06 15:34 | 50.03952 | 8.02799 | 13201 ft | 383 kts | 317° |
| 2026-05-06 15:35 | 50.05980 | 8.00081 | 13866 ft | 387 kts | 317° |
| 2026-05-06 15:35 | 50.08035 | 7.97326 | 14453 ft | 392 kts | 318° |
| 2026-05-06 15:35 | 50.10115 | 7.94542 | 15013 ft | 396 kts | 317° |
| 2026-05-06 15:35 | 50.12229 | 7.91705 | 15613 ft | 400 kts | 317° |
| 2026-05-06 15:36 | 50.14344 | 7.88852 | 16197 ft | 404 kts | 317° |
| 2026-05-06 15:36 | 50.16481 | 7.85973 | 16772 ft | 408 kts | 317° |
| 2026-05-06 15:36 | 50.18643 | 7.83056 | 17340 ft | 413 kts | 317° |
| 2026-05-06 15:36 | 50.20823 | 7.80110 | 17920 ft | 416 kts | 317° |
| 2026-05-06 15:37 | 50.23003 | 7.77196 | 18515 ft | 418 kts | 318° |
| 2026-05-06 15:37 | 50.25361 | 7.74505 | 19094 ft | 422 kts | 324° |
| 2026-05-06 15:37 | 50.27907 | 7.72188 | 19624 ft | 426 kts | 330° |
| 2026-05-06 15:37 | 50.30609 | 7.70209 | 20154 ft | 430 kts | 333° |
| 2026-05-06 15:38 | 50.33362 | 7.68340 | 20676 ft | 433 kts | 334° |
| 2026-05-06 15:38 | 50.36141 | 7.66473 | 21187 ft | 435 kts | 334° |
| 2026-05-06 15:38 | 50.38939 | 7.64574 | 21701 ft | 438 kts | 334° |
| 2026-05-06 15:38 | 50.41729 | 7.62670 | 22213 ft | 441 kts | 333° |
| 2026-05-06 15:39 | 50.44545 | 7.60732 | 22691 ft | 444 kts | 333° |
| 2026-05-06 15:39 | 50.47383 | 7.58770 | 23190 ft | 447 kts | 333° |
| 2026-05-06 15:39 | 50.50235 | 7.56798 | 23636 ft | 449 kts | 333° |
| 2026-05-06 15:39 | 50.53130 | 7.54753 | 24031 ft | 452 kts | 331° |
| 2026-05-06 15:40 | 50.55931 | 7.52509 | 24417 ft | 453 kts | 328° |
| 2026-05-06 15:40 | 50.58660 | 7.50012 | 24798 ft | 455 kts | 325° |
| 2026-05-06 15:40 | 50.61343 | 7.47325 | 25183 ft | 457 kts | 324° |
| 2026-05-06 15:40 | 50.64009 | 7.44577 | 25577 ft | 460 kts | 324° |
| 2026-05-06 15:41 | 50.66700 | 7.41786 | 25911 ft | 464 kts | 325° |
| 2026-05-06 15:41 | 50.69431 | 7.38977 | 26273 ft | 468 kts | 326° |
| 2026-05-06 15:41 | 50.72079 | 7.35992 | 26637 ft | 469 kts | 319° |
| 2026-05-06 15:41 | 50.74397 | 7.32362 | 27017 ft | 469 kts | 309° |
| 2026-05-06 15:42 | 50.76310 | 7.28175 | 27401 ft | 470 kts | 300° |
| 2026-05-06 15:42 | 50.77876 | 7.23626 | 27788 ft | 472 kts | 296° |
| 2026-05-06 15:42 | 50.79373 | 7.18991 | 28204 ft | 473 kts | 296° |
| 2026-05-06 15:42 | 50.80850 | 7.14346 | 28710 ft | 472 kts | 295° |
| 2026-05-06 15:43 | 50.82331 | 7.09727 | 29256 ft | 470 kts | 295° |
| 2026-05-06 15:43 | 50.83809 | 7.05116 | 29785 ft | 469 kts | 296° |
| 2026-05-06 15:43 | 50.85293 | 7.00521 | 30247 ft | 468 kts | 296° |
| 2026-05-06 15:43 | 50.86780 | 6.95942 | 30661 ft | 467 kts | 296° |
| 2026-05-06 15:44 | 50.88243 | 6.91422 | 31095 ft | 466 kts | 295° |
| 2026-05-06 15:44 | 50.89724 | 6.86816 | 31547 ft | 465 kts | 295° |
| 2026-05-06 15:44 | 50.91185 | 6.82248 | 31980 ft | 463 kts | 295° |
| 2026-05-06 15:44 | 50.92644 | 6.77687 | 32404 ft | 463 kts | 295° |
| 2026-05-06 15:45 | 50.94098 | 6.73140 | 32807 ft | 462 kts | 295° |
| 2026-05-06 15:45 | 50.95551 | 6.68592 | 33207 ft | 461 kts | 295° |
| 2026-05-06 15:45 | 50.96998 | 6.64054 | 33610 ft | 460 kts | 295° |
| 2026-05-06 15:45 | 50.98437 | 6.59527 | 33971 ft | 459 kts | 295° |
| 2026-05-06 15:46 | 50.99876 | 6.54988 | 34208 ft | 460 kts | 295° |
| 2026-05-06 15:46 | 51.01317 | 6.50435 | 34383 ft | 462 kts | 295° |
| 2026-05-06 15:46 | 51.02762 | 6.45862 | 34542 ft | 463 kts | 294° |
| 2026-05-06 15:46 | 51.04210 | 6.41276 | 34717 ft | 465 kts | 294° |
| 2026-05-06 15:47 | 51.05660 | 6.36676 | 34941 ft | 466 kts | 294° |
| 2026-05-06 15:47 | 51.07114 | 6.32056 | 35173 ft | 466 kts | 294° |
| 2026-05-06 15:47 | 51.08568 | 6.27423 | 35394 ft | 467 kts | 294° |
| 2026-05-06 15:47 | 51.10020 | 6.22784 | 35588 ft | 469 kts | 294° |
| 2026-05-06 15:48 | 51.11470 | 6.18131 | 35788 ft | 470 kts | 293° |
| 2026-05-06 15:48 | 51.12820 | 6.13376 | 35853 ft | 471 kts | 290° |
| 2026-05-06 15:48 | 51.15018 | 6.03535 | 35867 ft | 471 kts | 284° |
| 2026-05-06 15:49 | 51.16772 | 5.93488 | 35870 ft | 471 kts | 285° |
| 2026-05-06 15:49 | 51.18996 | 5.83717 | 35890 ft | 473 kts | 291° |
| 2026-05-06 15:50 | 51.21894 | 5.74282 | 35894 ft | 473 kts | 297° |
| 2026-05-06 15:50 | 51.25305 | 5.65283 | 35895 ft | 474 kts | 300° |
| 2026-05-06 15:51 | 51.28801 | 5.56349 | 35893 ft | 474 kts | 300° |
| 2026-05-06 15:51 | 51.32286 | 5.47391 | 35892 ft | 473 kts | 300° |
| 2026-05-06 15:52 | 51.35757 | 5.38420 | 35894 ft | 473 kts | 300° |
| 2026-05-06 15:52 | 51.39218 | 5.29436 | 35895 ft | 473 kts | 300° |
| 2026-05-06 15:53 | 51.42667 | 5.20447 | 35895 ft | 473 kts | 300° |
| 2026-05-06 15:53 | 51.46112 | 5.11444 | 35915 ft | 473 kts | 300° |
| 2026-05-06 15:54 | 51.49538 | 5.02454 | 35923 ft | 471 kts | 300° |
| 2026-05-06 15:54 | 51.52747 | 4.93387 | 35919 ft | 470 kts | 294° |
| 2026-05-06 15:55 | 51.55316 | 4.83751 | 35922 ft | 468 kts | 288° |
| 2026-05-06 15:55 | 51.57165 | 4.73746 | 35915 ft | 465 kts | 281° |
| 2026-05-06 15:56 | 51.58203 | 4.65179 | 35893 ft | 465 kts | 278° |
| 2026-05-06 15:56 | 51.59296 | 4.55002 | 35891 ft | 465 kts | 278° |
| 2026-05-06 15:57 | 51.60396 | 4.44676 | 35896 ft | 464 kts | 278° |
| 2026-05-06 15:57 | 51.61477 | 4.34482 | 35894 ft | 464 kts | 278° |
| 2026-05-06 15:58 | 51.62560 | 4.24194 | 35893 ft | 464 kts | 278° |
| 2026-05-06 15:58 | 51.63634 | 4.13916 | 35894 ft | 464 kts | 278° |
| 2026-05-06 15:59 | 51.64698 | 4.03641 | 35897 ft | 464 kts | 278° |
| 2026-05-06 15:59 | 51.65751 | 3.93380 | 35895 ft | 464 kts | 278° |
| 2026-05-06 16:00 | 51.66796 | 3.83105 | 35907 ft | 463 kts | 278° |
| 2026-05-06 16:00 | 51.67828 | 3.72881 | 35905 ft | 460 kts | 278° |
| 2026-05-06 16:01 | 51.68844 | 3.62659 | 35909 ft | 462 kts | 278° |
| 2026-05-06 16:01 | 51.69860 | 3.52427 | 35916 ft | 461 kts | 277° |
| 2026-05-06 16:02 | 51.70861 | 3.42218 | 35921 ft | 460 kts | 277° |
| 2026-05-06 16:02 | 51.71847 | 3.31996 | 35924 ft | 460 kts | 277° |
| 2026-05-06 16:03 | 51.72533 | 3.21807 | 35934 ft | 457 kts | 271° |
| 2026-05-06 16:03 | 51.72537 | 3.11513 | 35929 ft | 459 kts | 266° |
| 2026-05-06 16:04 | 51.71883 | 3.01272 | 35951 ft | 457 kts | 261° |
| 2026-05-06 16:04 | 51.71009 | 2.91107 | 35944 ft | 458 kts | 261° |
| 2026-05-06 16:05 | 51.70124 | 2.80932 | 35946 ft | 458 kts | 261° |
| 2026-05-06 16:05 | 51.69230 | 2.70729 | 35951 ft | 459 kts | 261° |
| 2026-05-06 16:06 | 51.68330 | 2.60555 | 35953 ft | 458 kts | 261° |
| 2026-05-06 16:06 | 51.67891 | 2.50308 | 35959 ft | 460 kts | 274° |
| 2026-05-06 16:07 | 51.68670 | 2.40062 | 35960 ft | 460 kts | 276° |
| 2026-05-06 16:07 | 51.69497 | 2.29796 | 35964 ft | 461 kts | 276° |
| 2026-05-06 16:08 | 51.70295 | 2.19605 | 35955 ft | 460 kts | 276° |
| 2026-05-06 16:08 | 51.71076 | 2.09337 | 35961 ft | 461 kts | 276° |
| 2026-05-06 16:09 | 51.71846 | 1.99062 | 35958 ft | 461 kts | 276° |
| 2026-05-06 16:09 | 51.72601 | 1.88786 | 35964 ft | 461 kts | 276° |
| 2026-05-06 16:10 | 51.73352 | 1.78479 | 35964 ft | 462 kts | 276° |
| 2026-05-06 16:10 | 51.74094 | 1.68169 | 35967 ft | 462 kts | 276° |
| 2026-05-06 16:11 | 51.74828 | 1.57852 | 35970 ft | 462 kts | 276° |
| 2026-05-06 16:11 | 51.75552 | 1.47527 | 35970 ft | 462 kts | 276° |
| 2026-05-06 16:12 | 51.76267 | 1.37212 | 35968 ft | 461 kts | 276° |
| 2026-05-06 16:12 | 51.76971 | 1.26902 | 35973 ft | 461 kts | 276° |
| 2026-05-06 16:13 | 51.77666 | 1.16588 | 35970 ft | 461 kts | 276° |
| 2026-05-06 16:13 | 51.78352 | 1.06270 | 35969 ft | 461 kts | 275° |
| 2026-05-06 16:14 | 51.79028 | 0.95962 | 35981 ft | 461 kts | 275° |
| 2026-05-06 16:14 | 51.80359 | 0.75264 | 35988 ft | 459 kts | 275° |
| 2026-05-06 16:15 | 51.83903 | 0.17046 | 36003 ft | 455 kts | 275° |
| 2026-05-06 16:15 | 51.86935 | -0.37071 | 36004 ft | 455 kts | 274° |
| 2026-05-06 16:16 | 51.89900 | -0.94997 | 36000 ft | 455 kts | 274° |
| 2026-05-06 16:16 | 51.92667 | -1.55034 | 36003 ft | 453 kts | 273° |
| 2026-05-06 16:17 | 51.95172 | -2.16290 | 36003 ft | 453 kts | 273° |
| 2026-05-06 16:17 | 51.97465 | -2.80737 | 36003 ft | 453 kts | 273° |
| 2026-05-06 16:18 | 51.99451 | -3.46925 | 36004 ft | 453 kts | 272° |
| 2026-05-06 16:18 | 52.01052 | -4.12519 | 36003 ft | 454 kts | 272° |
| 2026-05-06 16:19 | 52.02314 | -4.79550 | 36008 ft | 455 kts | 272° |
| 2026-05-06 16:19 | 52.08390 | -5.46926 | 36017 ft | 459 kts | 289° |
| 2026-05-06 16:20 | 52.18995 | -6.13501 | 36017 ft | 462 kts | 281° |
| 2026-05-06 16:20 | 52.25821 | -6.79601 | 36024 ft | 464 kts | 281° |
| 2026-05-06 16:21 | 52.32255 | -7.45605 | 36004 ft | 466 kts | 281° |
| 2026-05-06 16:21 | 52.38521 | -8.14003 | 35993 ft | 469 kts | 280° |
| 2026-05-06 16:22 | 52.45420 | -8.81708 | 35996 ft | 469 kts | 282° |
| 2026-05-06 16:22 | 52.52320 | -9.50614 | 36008 ft | 468 kts | 282° |
| 2026-05-06 16:23 | 52.54794 | -10.18927 | 36015 ft | 472 kts | 274° |
| 2026-05-06 16:23 | 52.55310 | -10.89798 | 36023 ft | 469 kts | 273° |
| 2026-05-06 16:24 | 52.55405 | -11.61026 | 36022 ft | 470 kts | 272° |
| 2026-05-06 16:24 | 52.55050 | -12.34999 | 36030 ft | 469 kts | 272° |
| 2026-05-06 16:25 | 52.54234 | -13.08956 | 36018 ft | 466 kts | 271° |
| 2026-05-06 16:25 | 52.52968 | -13.82368 | 36029 ft | 466 kts | 270° |
| 2026-05-06 16:26 | 52.51278 | -14.54627 | 36022 ft | 466 kts | 269° |
| 2026-05-06 16:26 | 52.53288 | -15.27638 | 37018 ft | 459 kts | 282° |
| 2026-05-06 16:27 | 52.61434 | -15.97215 | 37020 ft | 459 kts | 282° |
| 2026-05-06 16:27 | 52.69209 | -16.67597 | 37012 ft | 458 kts | 281° |
| 2026-05-06 16:28 | 52.76463 | -17.37202 | 36997 ft | 457 kts | 279° |
| 2026-05-06 16:28 | 52.83477 | -18.08804 | 37004 ft | 460 kts | 278° |
| 2026-05-06 16:29 | 52.90186 | -18.82121 | 37004 ft | 460 kts | 277° |
| 2026-05-06 16:29 | 52.96172 | -19.52329 | 37009 ft | 459 kts | 276° |
| 2026-05-06 16:30 | 53.00426 | -20.09972 | 37011 ft | 459 kts | 272° |
| 2026-05-06 16:30 | 53.03546 | -20.93364 | 37012 ft | 462 kts | 271° |
| 2026-05-06 16:31 | 53.05806 | -21.66039 | 37019 ft | 462 kts | 270° |
| 2026-05-06 16:31 | 53.07617 | -22.38559 | 37024 ft | 462 kts | 270° |
| 2026-05-06 16:32 | 53.08985 | -23.11065 | 37024 ft | 464 kts | 269° |
| 2026-05-06 16:32 | 53.09920 | -23.84140 | 37029 ft | 464 kts | 269° |
| 2026-05-06 16:33 | 53.10407 | -24.57462 | 37029 ft | 465 kts | 269° |
| 2026-05-06 16:34 | 53.10294 | -25.67275 | 37027 ft | 466 kts | 268° |
| 2026-05-06 16:34 | 53.09651 | -26.40849 | 37019 ft | 466 kts | 268° |
| 2026-05-06 16:35 | 53.08578 | -27.13252 | 37014 ft | 467 kts | 268° |
| 2026-05-06 16:35 | 53.07067 | -27.85480 | 37008 ft | 467 kts | 267° |
| 2026-05-06 16:36 | 53.05107 | -28.58081 | 36996 ft | 468 kts | 266° |
| 2026-05-06 16:36 | 53.02684 | -29.31188 | 36979 ft | 469 kts | 266° |
| 2026-05-06 16:37 | 52.99944 | -30.04300 | 36975 ft | 470 kts | 269° |
| 2026-05-06 16:37 | 52.99166 | -30.76060 | 36993 ft | 466 kts | 269° |
| 2026-05-06 16:38 | 52.97939 | -31.48086 | 37003 ft | 469 kts | 269° |
| 2026-05-06 16:38 | 52.96249 | -32.21091 | 37028 ft | 470 kts | 268° |
| 2026-05-06 16:39 | 52.94195 | -32.91519 | 37045 ft | 470 kts | 268° |
| 2026-05-06 16:39 | 52.93823 | -33.02944 | 35904 ft | 469 kts | 268° |
| 2026-05-06 16:39 | 52.93644 | -33.08346 | 37081 ft | 470 kts | 267° |
| 2026-05-06 16:40 | 52.93276 | -33.19198 | 37055 ft | 471 kts | 268° |
| 2026-05-06 16:40 | 52.92901 | -33.30069 | 37056 ft | 471 kts | 268° |
| 2026-05-06 16:41 | 52.92514 | -33.40929 | 37062 ft | 471 kts | 268° |
| 2026-05-06 16:41 | 52.92118 | -33.51722 | 37063 ft | 471 kts | 268° |
| 2026-05-06 16:42 | 52.91710 | -33.62576 | 37061 ft | 472 kts | 268° |
| 2026-05-06 16:42 | 52.91290 | -33.73434 | 37068 ft | 471 kts | 268° |
| 2026-05-06 16:43 | 52.90676 | -33.88882 | 37069 ft | 471 kts | 268° |
| 2026-05-06 16:43 | 52.88119 | -34.48454 | 37083 ft | 470 kts | 268° |
| 2026-05-06 16:44 | 52.84565 | -35.21685 | 37093 ft | 470 kts | 267° |
| 2026-05-06 16:44 | 52.80546 | -35.95058 | 37106 ft | 468 kts | 267° |
| 2026-05-06 16:45 | 52.75365 | -36.79215 | 37114 ft | 466 kts | 267° |
| 2026-05-06 16:45 | 52.71311 | -37.39065 | 37126 ft | 464 kts | 267° |
| 2026-05-06 16:46 | 52.66042 | -38.10847 | 37141 ft | 463 kts | 266° |